createdAt,value
2022-10-23T00:01:15.340Z,13.40
2022-10-23T00:03:50.820Z,13.40
2022-10-23T00:06:24.160Z,13.30
2022-10-23T00:08:56.900Z,13.30
2022-10-23T00:11:30.957Z,13.30
2022-10-23T00:14:06.518Z,13.20
2022-10-23T00:16:39.782Z,13.20
2022-10-23T00:19:12.936Z,13.10
2022-10-23T00:21:45.828Z,13.10
2022-10-23T00:24:18.462Z,13.20
2022-10-23T00:26:51.292Z,13.20
2022-10-23T00:29:24.297Z,13.10
2022-10-23T00:31:57.042Z,13.20
2022-10-23T00:34:29.564Z,13.10
2022-10-23T00:37:02.661Z,13.20
2022-10-23T00:39:35.186Z,13.20
2022-10-23T00:42:14.202Z,13.20
2022-10-23T00:44:46.689Z,13.20
2022-10-23T00:47:19.986Z,13.30
2022-10-23T00:49:52.594Z,13.30
2022-10-23T00:52:25.341Z,13.30
2022-10-23T00:54:58.929Z,13.30
2022-10-23T00:57:31.662Z,13.30
2022-10-23T01:00:05.133Z,13.40
2022-10-23T01:02:37.917Z,13.40
2022-10-23T01:05:11.204Z,13.40
2022-10-23T01:08:09.785Z,13.30
2022-10-23T01:10:50.174Z,13.30
2022-10-23T01:13:58.260Z,13.30
2022-10-23T01:16:37.954Z,13.30
2022-10-23T01:19:21.361Z,13.30
2022-10-23T01:22:15.119Z,13.20
2022-10-23T01:25:00.799Z,13.20
2022-10-23T01:27:36.707Z,13.30
2022-10-23T01:30:16.049Z,13.40
2022-10-23T01:32:56.820Z,13.40
2022-10-23T01:35:35.394Z,13.40
2022-10-23T01:38:35.035Z,13.40
2022-10-23T01:41:28.312Z,13.40
2022-10-23T01:44:03.659Z,13.40
2022-10-23T01:46:37.596Z,13.40
2022-10-23T01:49:12.977Z,13.40
2022-10-23T01:51:50.920Z,13.40
2022-10-23T01:54:29.135Z,13.40
2022-10-23T01:57:03.259Z,13.40
2022-10-23T01:59:40.184Z,13.40
2022-10-23T02:02:15.492Z,13.40
2022-10-23T02:05:03.491Z,13.40
2022-10-23T02:07:37.197Z,13.30
2022-10-23T02:10:10.815Z,13.40
2022-10-23T02:13:08.402Z,13.40
2022-10-23T02:15:51.563Z,13.40
2022-10-23T02:18:27.264Z,13.40
2022-10-23T02:21:05.280Z,13.40
2022-10-23T02:24:21.880Z,13.50
2022-10-23T02:26:57.912Z,13.50
2022-10-23T02:29:33.679Z,13.50
2022-10-23T02:32:09.317Z,13.50
2022-10-23T02:34:42.341Z,13.50
2022-10-23T02:37:15.069Z,13.50
2022-10-23T02:39:49.303Z,13.50
2022-10-23T02:42:33.073Z,13.60
2022-10-23T02:45:29.855Z,13.50
2022-10-23T02:48:15.412Z,13.60
2022-10-23T02:51:18.171Z,13.50
2022-10-23T02:54:22.789Z,13.50
2022-10-23T02:57:22.772Z,13.50
2022-10-23T03:00:13.320Z,13.50
2022-10-23T03:02:54.748Z,13.50
2022-10-23T03:05:32.418Z,13.50
2022-10-23T03:08:07.972Z,13.50
2022-10-23T03:10:42.392Z,13.50
2022-10-23T03:13:15.232Z,13.50
2022-10-23T03:15:47.744Z,13.50
2022-10-23T03:18:20.467Z,13.50
2022-10-23T03:20:52.992Z,13.60
2022-10-23T03:23:25.800Z,13.50
2022-10-23T03:25:58.353Z,13.60
2022-10-23T03:28:31.644Z,13.50
2022-10-23T03:31:04.424Z,13.50
2022-10-23T03:33:37.292Z,13.50
2022-10-23T03:36:10.200Z,13.50
2022-10-23T03:38:42.956Z,13.50
2022-10-23T03:41:15.459Z,13.50
2022-10-23T03:43:48.172Z,13.50
2022-10-23T03:46:20.684Z,13.40
2022-10-23T03:48:53.775Z,13.40
2022-10-23T03:51:26.767Z,13.40
2022-10-23T03:53:59.495Z,13.40
2022-10-23T03:56:32.032Z,13.40
2022-10-23T03:59:05.272Z,13.40
2022-10-23T04:01:37.909Z,13.40
2022-10-23T04:04:11.541Z,13.40
2022-10-23T04:06:44.536Z,13.40
2022-10-23T04:09:17.477Z,13.40
2022-10-23T04:11:50.029Z,13.40
2022-10-23T04:14:22.757Z,13.40
2022-10-23T04:16:55.255Z,13.40
2022-10-23T04:19:28.580Z,13.40
2022-10-23T04:22:01.204Z,13.40
2022-10-23T04:24:34.610Z,13.40
2022-10-23T04:27:07.121Z,13.40
2022-10-23T04:29:40.072Z,13.40
2022-10-23T04:32:12.612Z,13.50
2022-10-23T04:34:45.639Z,13.50
2022-10-23T04:37:18.175Z,13.50
2022-10-23T04:39:51.020Z,13.50
2022-10-23T04:42:23.570Z,13.40
2022-10-23T04:44:56.302Z,13.40
2022-10-23T04:47:28.810Z,13.40
2022-10-23T04:50:01.573Z,13.40
2022-10-23T04:52:34.358Z,13.30
2022-10-23T04:55:07.891Z,13.40
2022-10-23T04:57:40.486Z,13.40
2022-10-23T05:00:15.982Z,13.40
2022-10-23T05:02:48.566Z,13.40
2022-10-23T05:05:21.342Z,13.30
2022-10-23T05:07:53.863Z,13.30
2022-10-23T05:10:26.655Z,13.30
2022-10-23T05:12:59.162Z,13.30
2022-10-23T05:15:32.301Z,13.30
2022-10-23T05:18:15.567Z,13.30
2022-10-23T05:20:50.378Z,13.30
2022-10-23T05:23:25.574Z,13.30
2022-10-23T05:25:58.353Z,13.30
2022-10-23T05:28:31.299Z,13.20
2022-10-23T05:31:05.465Z,13.20
2022-10-23T05:33:38.573Z,13.20
2022-10-23T05:36:13.433Z,13.20
2022-10-23T05:38:46.691Z,13.20
2022-10-23T05:41:20.022Z,13.30
2022-10-23T05:43:52.608Z,13.30
2022-10-23T05:46:25.363Z,13.20
2022-10-23T05:51:39.864Z,13.20
2022-10-23T05:54:12.412Z,13.30
2022-10-23T05:56:45.223Z,13.20
2022-10-23T05:59:20.508Z,13.30
2022-10-23T06:01:55.788Z,13.30
2022-10-23T06:04:28.600Z,13.30
2022-10-23T06:07:02.020Z,13.30
2022-10-23T06:09:34.500Z,13.30
2022-10-23T06:12:07.243Z,13.30
2022-10-23T06:14:39.722Z,13.40
2022-10-23T06:17:12.390Z,13.40
2022-10-23T06:19:46.254Z,13.40
2022-10-23T06:24:52.553Z,13.40
2022-10-23T06:27:25.311Z,13.40
2022-10-23T06:29:57.896Z,13.40
2022-10-23T06:32:32.648Z,13.50
2022-10-23T06:35:05.860Z,13.60
2022-10-23T06:37:38.579Z,13.60
2022-10-23T06:40:11.208Z,13.60
2022-10-23T06:42:44.396Z,13.60
2022-10-23T06:45:17.212Z,13.60
2022-10-23T06:47:51.066Z,13.60
2022-10-23T06:50:25.175Z,13.60
2022-10-23T06:52:57.998Z,13.70
2022-10-23T06:55:30.758Z,13.70
2022-10-23T06:58:03.579Z,13.70
2022-10-23T07:00:39.147Z,13.80
2022-10-23T07:03:11.926Z,13.70
2022-10-23T07:05:47.595Z,13.80
2022-10-23T07:08:20.294Z,13.80
2022-10-23T07:10:53.173Z,13.80
2022-10-23T07:13:25.880Z,13.80
2022-10-23T07:15:58.364Z,13.80
2022-10-23T07:18:31.164Z,13.90
2022-10-23T07:21:03.919Z,13.90
2022-10-23T07:23:37.165Z,14.00
2022-10-23T07:26:14.477Z,14.00
2022-10-23T07:28:48.604Z,14.10
2022-10-23T07:31:25.666Z,14.10
2022-10-23T07:34:01.056Z,14.00
2022-10-23T07:36:33.561Z,14.10
2022-10-23T07:39:06.252Z,14.10
2022-10-23T07:41:38.767Z,14.10
2022-10-23T07:44:11.422Z,14.10
2022-10-23T07:46:43.866Z,14.10
2022-10-23T07:49:16.592Z,14.10
2022-10-23T07:51:53.996Z,14.10
2022-10-23T07:54:26.801Z,14.10
2022-10-23T07:57:00.314Z,14.20
2022-10-23T07:59:37.137Z,14.10
2022-10-23T08:02:15.056Z,14.10
2022-10-23T08:04:50.710Z,14.10
2022-10-23T08:07:23.146Z,14.10
2022-10-23T08:09:55.833Z,14.20
2022-10-23T08:12:28.386Z,14.20
2022-10-23T08:15:01.104Z,14.20
2022-10-23T08:17:33.606Z,14.20
2022-10-23T08:20:06.887Z,14.30
2022-10-23T08:22:39.842Z,14.30
2022-10-23T08:25:12.629Z,14.40
2022-10-23T08:27:45.436Z,14.40
2022-10-23T08:30:18.402Z,14.50
2022-10-23T08:32:51.038Z,14.40
2022-10-23T08:35:24.106Z,14.40
2022-10-23T08:37:57.359Z,14.50
2022-10-23T08:40:30.083Z,14.50
2022-10-23T08:43:17.407Z,14.50
2022-10-23T08:45:55.803Z,14.30
2022-10-23T08:48:38.296Z,14.30
2022-10-23T08:51:23.453Z,14.30
2022-10-23T08:54:01.893Z,14.40
2022-10-23T08:56:57.249Z,14.50
2022-10-23T08:59:39.568Z,14.60
2022-10-23T09:02:32.831Z,14.80
2022-10-23T09:05:20.145Z,15.00
2022-10-23T09:08:17.062Z,15.10
2022-10-23T09:11:03.537Z,15.20
2022-10-23T09:14:03.712Z,15.30
2022-10-23T09:17:15.997Z,15.30
2022-10-23T09:19:55.682Z,15.40
2022-10-23T09:22:29.312Z,15.40
2022-10-23T09:25:02.142Z,15.30
2022-10-23T09:27:34.716Z,15.40
2022-10-23T09:30:08.217Z,15.50
2022-10-23T09:32:42.550Z,15.60
2022-10-23T09:35:24.225Z,15.70
2022-10-23T09:37:57.385Z,15.80
2022-10-23T09:40:43.549Z,15.80
2022-10-23T09:43:18.927Z,15.80
2022-10-23T09:46:01.305Z,15.80
2022-10-23T09:48:34.941Z,15.70
2022-10-23T09:51:18.390Z,15.70
2022-10-23T09:53:54.100Z,15.70
2022-10-23T09:56:31.556Z,15.70
2022-10-23T09:59:23.177Z,15.70
2022-10-23T10:01:58.600Z,15.70
2022-10-23T10:04:39.871Z,15.80
2022-10-23T10:07:28.646Z,15.70
2022-10-23T10:10:02.722Z,15.60
2022-10-23T10:12:50.015Z,15.50
2022-10-23T10:15:22.510Z,15.50
2022-10-23T10:18:25.917Z,15.60
2022-10-23T10:21:16.466Z,15.60
2022-10-23T10:23:55.998Z,15.70
2022-10-23T10:27:03.772Z,15.80
2022-10-23T10:29:45.849Z,15.90
2022-10-23T10:32:36.078Z,16.20
2022-10-23T10:35:34.303Z,16.30
2022-10-23T10:38:38.146Z,16.50
2022-10-23T10:41:29.609Z,16.70
2022-10-23T10:44:29.035Z,16.70
2022-10-23T10:47:10.955Z,16.80
2022-10-23T10:49:59.869Z,16.90
2022-10-23T10:52:58.487Z,16.90
2022-10-23T10:55:38.725Z,17.00
2022-10-23T10:58:31.844Z,17.00
2022-10-23T11:01:17.522Z,16.70
2022-10-23T11:03:57.272Z,16.60
2022-10-23T11:06:34.200Z,16.50
2022-10-23T11:09:21.240Z,16.50
2022-10-23T11:11:54.163Z,16.50
2022-10-23T11:14:30.862Z,16.60
2022-10-23T11:17:20.891Z,16.60
2022-10-23T11:20:36.750Z,16.50
2022-10-23T11:23:27.104Z,16.40
2022-10-23T11:26:33.890Z,16.30
2022-10-23T11:29:33.859Z,16.30
2022-10-23T11:32:21.026Z,16.40
2022-10-23T11:35:20.874Z,16.40
2022-10-23T11:38:00.992Z,16.40
2022-10-23T11:40:33.730Z,16.40
2022-10-23T11:43:08.690Z,16.50
2022-10-23T11:45:41.756Z,16.50
2022-10-23T11:48:14.622Z,16.60
2022-10-23T11:50:47.267Z,16.70
2022-10-23T11:53:32.079Z,16.80
2022-10-23T11:56:14.715Z,16.80
2022-10-23T11:58:53.207Z,16.70
2022-10-23T12:01:31.900Z,16.60
2022-10-23T12:04:14.719Z,16.50
2022-10-23T12:07:04.846Z,16.40
2022-10-23T12:09:37.756Z,16.40
2022-10-23T12:12:10.210Z,16.40
2022-10-23T12:14:49.383Z,16.40
2022-10-23T12:17:35.830Z,16.50
2022-10-23T12:20:08.622Z,16.60
2022-10-23T12:22:44.168Z,16.80
2022-10-23T12:25:26.483Z,16.80
2022-10-23T12:28:13.128Z,16.90
2022-10-23T12:31:13.907Z,16.90
2022-10-23T12:34:01.304Z,17.10
2022-10-23T12:37:08.656Z,17.20
2022-10-23T12:39:44.468Z,17.40
2022-10-23T12:42:22.869Z,17.50
2022-10-23T12:45:02.431Z,17.50
2022-10-23T12:47:49.098Z,17.50
2022-10-23T12:50:31.138Z,17.60
2022-10-23T12:53:10.779Z,17.70
2022-10-23T12:59:01.538Z,18.20
2022-10-23T13:01:50.388Z,18.40
2022-10-23T13:04:35.405Z,18.70
2022-10-23T13:07:08.009Z,18.90
2022-10-23T13:09:43.140Z,19.00
2022-10-23T13:12:28.445Z,19.20
2022-10-23T13:15:03.678Z,19.40
2022-10-23T13:17:47.555Z,19.40
2022-10-23T13:20:26.506Z,19.40
2022-10-23T13:23:10.192Z,19.30
2022-10-23T13:25:43.118Z,19.20
2022-10-23T13:28:23.750Z,19.10
2022-10-23T13:31:04.726Z,19.10
2022-10-23T13:33:46.266Z,19.10
2022-10-23T13:36:22.785Z,19.00
2022-10-23T13:39:12.994Z,19.00
2022-10-23T13:41:46.897Z,18.90
2022-10-23T13:44:22.256Z,18.80
2022-10-23T13:46:56.394Z,18.80
2022-10-23T13:49:28.947Z,18.50
2022-10-23T13:52:03.869Z,18.30
2022-10-23T13:57:56.720Z,18.20
2022-10-23T14:00:49.923Z,18.20
2022-10-23T14:03:35.177Z,18.00
2022-10-23T14:06:09.859Z,17.80
2022-10-23T14:08:47.223Z,17.60
2022-10-23T14:11:24.027Z,17.50
2022-10-23T14:14:00.762Z,17.30
2022-10-23T14:16:33.571Z,17.10
2022-10-23T14:19:10.968Z,17.00
2022-10-23T14:21:48.562Z,16.80
2022-10-23T14:24:21.289Z,16.60
2022-10-23T14:26:53.738Z,16.40
2022-10-23T14:29:30.009Z,16.20
2022-10-23T14:32:07.769Z,16.00
2022-10-23T14:34:42.894Z,15.80
2022-10-23T14:37:22.879Z,15.60
2022-10-23T14:39:57.734Z,15.50
2022-10-23T14:42:34.256Z,15.30
2022-10-23T14:45:07.497Z,15.20
2022-10-23T14:47:40.026Z,15.10
2022-10-23T14:50:14.375Z,15.00
2022-10-23T14:52:47.108Z,15.00
2022-10-23T14:55:21.367Z,15.00
2022-10-23T14:57:57.487Z,15.10
2022-10-23T15:00:30.522Z,15.10
2022-10-23T15:03:03.246Z,15.20
2022-10-23T15:05:41.608Z,15.10
2022-10-23T15:08:14.063Z,15.10
2022-10-23T15:10:46.762Z,15.20
2022-10-23T15:13:19.258Z,15.10
2022-10-23T15:16:02.518Z,15.00
2022-10-23T15:21:14.545Z,14.80
2022-10-23T15:23:47.874Z,14.70
2022-10-23T15:26:23.012Z,14.50
2022-10-23T15:29:00.389Z,14.30
2022-10-23T15:31:38.833Z,14.10
2022-10-23T15:34:14.801Z,13.90
2022-10-23T15:36:51.002Z,13.80
2022-10-23T15:39:28.969Z,13.80
2022-10-23T15:42:04.240Z,13.70
2022-10-23T15:45:02.090Z,13.60
2022-10-23T15:47:34.815Z,13.60
2022-10-23T15:50:08.313Z,13.40
2022-10-23T15:52:59.785Z,13.40
2022-10-23T15:55:50.529Z,13.30
2022-10-23T15:58:23.283Z,13.20
2022-10-23T16:00:56.043Z,13.20
2022-10-23T16:03:28.842Z,13.10
2022-10-23T16:06:06.169Z,13.00
2022-10-23T16:08:39.433Z,12.90
2022-10-23T16:11:21.127Z,12.90
2022-10-23T16:13:58.919Z,12.80
2022-10-23T16:16:32.619Z,12.70
2022-10-23T16:19:05.596Z,12.60
2022-10-23T16:21:38.499Z,12.60
2022-10-23T16:24:11.699Z,12.50
2022-10-23T16:26:50.251Z,12.50
2022-10-23T16:29:24.463Z,12.40
2022-10-23T16:31:57.602Z,12.50
2022-10-23T16:34:30.298Z,12.50
2022-10-23T16:37:02.804Z,12.40
2022-10-23T16:39:41.491Z,12.40
2022-10-23T16:42:14.049Z,12.40
2022-10-23T16:44:46.771Z,12.30
2022-10-23T16:47:19.318Z,12.20
2022-10-23T16:49:52.046Z,12.30
2022-10-23T16:52:26.523Z,12.20
2022-10-23T16:54:59.519Z,12.20
2022-10-23T16:57:32.033Z,12.20
2022-10-23T17:00:06.302Z,12.20
2022-10-23T17:02:41.164Z,12.30
2022-10-23T17:05:14.092Z,12.30
2022-10-23T17:07:46.781Z,12.30
2022-10-23T17:10:19.672Z,12.30
2022-10-23T17:12:52.246Z,12.20
2022-10-23T17:15:24.999Z,12.20
2022-10-23T17:17:58.198Z,12.10
2022-10-23T17:20:30.881Z,12.10
2022-10-23T17:23:03.401Z,12.10
2022-10-23T17:25:40.644Z,12.20
2022-10-23T17:28:13.125Z,12.20
2022-10-23T17:30:45.890Z,12.10
2022-10-23T17:33:19.043Z,12.10
2022-10-23T17:35:52.441Z,11.90
2022-10-23T17:38:25.037Z,11.90
2022-10-23T17:40:58.154Z,11.90
2022-10-23T17:43:30.681Z,11.80
2022-10-23T17:46:06.143Z,11.90
2022-10-23T17:48:45.602Z,11.90
2022-10-23T17:51:21.544Z,11.90
2022-10-23T17:53:56.567Z,11.80
2022-10-23T17:56:31.372Z,11.80
2022-10-23T17:59:09.876Z,11.80
2022-10-23T18:01:44.050Z,11.70
2022-10-23T18:04:18.640Z,11.70
2022-10-23T18:06:53.055Z,11.70
2022-10-23T18:09:25.808Z,11.70
2022-10-23T18:11:58.506Z,11.70
2022-10-23T18:14:34.318Z,11.70
2022-10-23T18:17:09.380Z,11.60
2022-10-23T18:19:41.883Z,11.60
2022-10-23T18:22:14.690Z,11.50
2022-10-23T18:24:49.860Z,11.40
2022-10-23T18:27:22.708Z,11.30
2022-10-23T18:29:57.579Z,11.30
2022-10-23T18:32:30.360Z,11.30
2022-10-23T18:35:02.990Z,11.40
2022-10-23T18:37:41.220Z,11.40
2022-10-23T18:40:14.254Z,11.40
2022-10-23T18:42:47.872Z,11.30
2022-10-23T18:45:20.496Z,11.30
2022-10-23T18:47:53.464Z,11.20
2022-10-23T18:50:26.251Z,11.10
2022-10-23T18:52:59.012Z,11.00
2022-10-23T18:58:04.276Z,11.00
2022-10-23T19:00:36.840Z,11.00
2022-10-23T19:03:13.519Z,11.00
2022-10-23T19:05:47.109Z,11.00
2022-10-23T19:08:20.059Z,11.00
2022-10-23T19:10:53.304Z,10.90
2022-10-23T19:13:26.515Z,10.80
2022-10-23T19:15:59.565Z,10.90
2022-10-23T19:18:36.058Z,10.90
2022-10-23T19:21:08.955Z,11.00
2022-10-23T19:23:43.141Z,11.10
2022-10-23T19:26:16.345Z,11.00
2022-10-23T19:28:49.258Z,11.00
2022-10-23T19:31:23.522Z,11.00
2022-10-23T19:33:56.315Z,11.00
2022-10-23T19:36:28.784Z,11.00
2022-10-23T19:39:01.592Z,11.00
2022-10-23T19:41:34.091Z,11.00
2022-10-23T19:44:06.848Z,11.00
2022-10-23T19:46:47.965Z,10.90
2022-10-23T19:49:20.909Z,10.90
2022-10-23T19:51:53.432Z,10.90
2022-10-23T19:54:26.147Z,10.90
2022-10-23T19:56:58.787Z,10.90
2022-10-23T19:59:31.480Z,10.80
2022-10-23T20:02:04.275Z,10.80
2022-10-23T20:04:37.087Z,10.80
2022-10-23T20:07:09.685Z,10.80
2022-10-23T20:09:42.401Z,10.80
2022-10-23T20:12:15.006Z,10.80
2022-10-23T20:14:47.709Z,10.80
2022-10-23T20:17:20.617Z,10.70
2022-10-23T20:19:53.380Z,10.70
2022-10-23T20:22:28.838Z,10.70
2022-10-23T20:25:01.531Z,10.70
2022-10-23T20:27:34.030Z,10.80
2022-10-23T20:30:07.305Z,10.80
2022-10-23T20:32:40.565Z,10.80
2022-10-23T20:35:13.288Z,10.80
2022-10-23T20:37:46.210Z,10.80
2022-10-23T20:40:19.144Z,10.80
2022-10-23T20:42:51.634Z,10.80
2022-10-23T20:45:24.571Z,10.80
2022-10-23T20:47:57.408Z,10.80
2022-10-23T20:50:30.127Z,10.70
2022-10-23T20:53:02.580Z,10.70
2022-10-23T20:55:40.125Z,10.60
2022-10-23T20:58:12.603Z,10.60
2022-10-23T21:00:45.307Z,10.50
2022-10-23T21:03:17.859Z,10.50
2022-10-23T21:05:50.510Z,10.40
2022-10-23T21:08:22.971Z,10.40
2022-10-23T21:10:55.631Z,10.40
2022-10-23T21:13:29.208Z,10.30
2022-10-23T21:16:19.085Z,10.40
2022-10-23T21:18:51.786Z,10.40
2022-10-23T21:21:32.371Z,10.50
2022-10-23T21:24:14.935Z,10.50
2022-10-23T21:26:47.747Z,10.50
2022-10-23T21:29:20.622Z,10.50
2022-10-23T21:32:03.711Z,10.50
2022-10-23T21:34:36.436Z,10.50
2022-10-23T21:37:14.139Z,10.50
2022-10-23T21:39:47.477Z,10.40
2022-10-23T21:42:22.499Z,10.40
2022-10-23T21:44:55.255Z,10.40
2022-10-23T21:47:27.935Z,10.40
2022-10-23T21:50:00.447Z,10.40
2022-10-23T21:52:33.259Z,10.30
2022-10-23T21:55:06.062Z,10.30
2022-10-23T21:57:41.742Z,10.30
2022-10-23T22:00:16.527Z,10.20
2022-10-23T22:02:52.203Z,10.30
2022-10-23T22:05:24.667Z,10.30
2022-10-23T22:07:57.324Z,10.30
2022-10-23T22:10:29.912Z,10.30
2022-10-23T22:13:02.592Z,10.30
2022-10-23T22:15:35.321Z,10.30
2022-10-23T22:18:08.049Z,10.30
2022-10-23T22:20:42.916Z,10.30
2022-10-23T22:23:15.560Z,10.20
2022-10-23T22:25:48.057Z,10.30
2022-10-23T22:28:20.737Z,10.40
2022-10-23T22:30:53.258Z,10.50
2022-10-23T22:33:25.909Z,10.50
2022-10-23T22:36:03.234Z,10.50
2022-10-23T22:38:36.495Z,10.50
2022-10-23T22:41:09.474Z,10.50
2022-10-23T22:43:42.124Z,10.50
2022-10-23T22:46:15.715Z,10.50
2022-10-23T22:48:48.521Z,10.50
2022-10-23T22:51:23.520Z,10.60
2022-10-23T22:53:58.002Z,10.60
2022-10-23T22:56:30.881Z,10.60
2022-10-23T22:59:04.101Z,10.70
2022-10-23T23:01:39.735Z,10.70
2022-10-23T23:04:36.597Z,10.70
2022-10-23T23:07:12.531Z,10.80
2022-10-23T23:09:45.513Z,10.80
2022-10-23T23:12:19.359Z,10.80
2022-10-23T23:14:52.131Z,10.80
2022-10-23T23:17:24.629Z,10.80
2022-10-23T23:19:57.351Z,10.80
2022-10-23T23:22:29.924Z,10.80
2022-10-23T23:25:02.674Z,10.80
2022-10-23T23:27:35.310Z,10.80
2022-10-23T23:30:09.284Z,10.80
2022-10-23T23:32:42.063Z,10.80
2022-10-23T23:35:15.026Z,10.80
2022-10-23T23:37:47.529Z,10.80
2022-10-23T23:40:20.281Z,10.80
2022-10-23T23:42:52.769Z,10.80
2022-10-23T23:45:25.573Z,10.90
2022-10-23T23:47:58.534Z,10.90
2022-10-23T23:50:31.233Z,10.80
2022-10-23T23:53:03.980Z,10.80
2022-10-23T23:55:36.971Z,10.80
2022-10-23T23:58:11.589Z,10.80
